Weather observations for the past three days for
Chanute, Chanute Martin Johnson Airport
| Date | Time (cdt) | Wind (kph) | Vis. (km) | Weather | Sky Cond. | Temperature (ºC) | Relative Humidity | Wind Chill (°C) | Heat Index (°C) | Pressure | Precipitation (cm) | ||||||
|---|---|---|---|---|---|---|---|---|---|---|---|---|---|---|---|---|---|
| Air | Dwpt | 6 hour | altimeter (cm) | sea level (mb) | 1 hr | 3 hr | 6 hr | ||||||||||
| Max. | Min. | ||||||||||||||||
| 31 | 07:52 | S 15 | 16.09 | Fair | CLR | 25.6 | 16.7 | 58% | 26 | 76.25 | 1015.2 | ||||||
| 31 | 06:52 | S 13 | 16.09 | Fair | CLR | 24.4 | 16.1 | 28.9 | 24.4 | 60% | 26 | 76.2 | 1014.5 | ||||
| 31 | 05:52 | S 15 | 16.09 | Fair | CLR | 25 | 16.1 | 58% | 26 | 76.15 | 1013.8 | ||||||
| 31 | 04:52 | S 15 | 16.09 | Fair | CLR | 25.6 | 15.6 | 54% | 26 | 76.12 | 1013.2 | ||||||
| 31 | 03:52 | S 17 | 16.09 | Fair | CLR | 26.1 | 15.6 | 52% | 27 | 76.1 | 1012.8 | ||||||
| 31 | 02:52 | S 15 | 16.09 | Fair | CLR | 27.2 | 15.6 | 49% | 28 | 76.07 | 1012.7 | ||||||
| 31 | 01:52 | S 15 | 16.09 | Fair | CLR | 27.2 | 15.6 | 49% | 28 | 76.07 | 1012.6 | ||||||
| 31 | 00:52 | S 15 | 16.09 | Fair | CLR | 28.9 | 15 | 35.6 | 28.3 | 43% | 29 | 76.02 | 1012.1 | ||||
| 30 | 23:52 | S 15 | 16.09 | Fair | CLR | 28.9 | 14.4 | 41% | 29 | 76.02 | 1011.8 | ||||||
| 30 | 22:52 | S 17 | 16.09 | Fair | CLR | 30.6 | 15 | 39% | 30 | 76 | 1011.9 | ||||||
| 30 | 21:52 | S 13 | 16.09 | Fair | CLR | 29.4 | 15.6 | 43% | 29 | 76 | 1011.6 | ||||||
| 30 | 20:52 | S 15 | 16.09 | Fair | CLR | 31.1 | 15.6 | 39% | 31 | 75.95 | 1011.1 | ||||||
| 30 | 19:52 | S 15 | 16.09 | Fair | CLR | 33.3 | 15 | 33% | 33 | 75.9 | 1010.4 | ||||||
| 30 | 18:52 | S 20 G 37 | 16.09 | Fair | CLR | 35.6 | 15 | 38.9 | 35.6 | 29% | 35 | 75.9 | 1010.4 | ||||
| 30 | 17:52 | S 31 G 44 | 16.09 | Fair | CLR | 37.2 | 14.4 | 26% | 37 | 75.9 | 1010.3 | ||||||
| 30 | 16:52 | S 30 G 43 | 16.09 | Fair | CLR | 37.8 | 15 | 26% | 38 | 75.9 | 1010.3 | ||||||
| 30 | 14:52 | S 24 G 43 | 16.09 | Fair | CLR | 37.8 | 16.7 | 29% | 39 | 75.97 | 1011.4 | ||||||
| 30 | 13:52 | SW 30 G 44 | 16.09 | Fair | CLR | 37.8 | 17.2 | 30% | 39 | 76.02 | 1011.9 | ||||||
| 30 | 12:52 | S 35 G 48 | 16.09 | Fair and Breezy | CLR | 36.1 | 17.2 | 36.1 | 24.4 | 33% | 37 | 76.07 | 1012.6 | ||||
| 30 | 11:52 | S 31 G 50 | 16.09 | Fair | CLR | 33.9 | 17.2 | 37% | 35 | 76.12 | 1013.3 | ||||||
| 30 | 10:52 | S 28 G 50 | 16.09 | Fair | CLR | 31.7 | 16.7 | 41% | 32 | 76.12 | 1013.4 | ||||||
| 30 | 09:52 | S 30 G 50 | 16.09 | Fair | CLR | 30 | 16.1 | 43% | 30 | 76.12 | 1013.6 | ||||||
| 30 | 08:52 | S 28 G 46 | 16.09 | Fair | CLR | 26.7 | 15.6 | 51% | 27 | 76.15 | 1014.0 | ||||||
| 30 | 07:52 | S 22 | 16.09 | Fair | CLR | 25.6 | 15.6 | 54% | 26 | 76.15 | 1013.8 | ||||||
| 30 | 06:52 | S 19 | 16.09 | Fair | CLR | 24.4 | 15 | 27.8 | 24.4 | 56% | 26 | 76.15 | 1013.7 | ||||
| 30 | 05:52 | S 17 | 16.09 | Fair | CLR | 24.4 | 15 | 56% | 26 | 76.15 | 1013.7 | ||||||
| 30 | 04:52 | S 17 | 16.09 | Fair | CLR | 25.6 | 15 | 52% | 26 | 76.12 | 1013.3 | ||||||
| 30 | 03:52 | S 20 | 16.09 | Fair | CLR | 26.1 | 14.4 | 49% | 27 | 76.1 | 1013.2 | ||||||
| 30 | 02:52 | S 17 | 16.09 | Fair | CLR | 26.7 | 13.9 | 45% | 27 | 76.1 | 1012.9 | ||||||
| 30 | 01:52 | S 15 | 16.09 | Fair | CLR | 26.7 | 13.9 | 45% | 27 | 76.1 | 1013.0 | ||||||
| 30 | 00:52 | S 17 | 16.09 | Fair | CLR | 27.8 | 13.9 | 35 | 27.2 | 43% | 28 | 76.1 | 1013.1 | ||||
| 29 | 23:52 | S 15 | 16.09 | Fair | CLR | 28.3 | 15 | 44% | 28 | 76.1 | 1013.0 | ||||||
| 29 | 22:52 | SE 13 | 16.09 | Fair | CLR | 27.2 | 16.1 | 51% | 28 | 76.1 | 1013.1 | ||||||
| 29 | 21:52 | SE 13 | 16.09 | Fair | CLR | 27.8 | 16.1 | 49% | 28 | 76.07 | 1012.9 | ||||||
| 29 | 20:52 | S 13 | 16.09 | Fair | CLR | 30.6 | 16.7 | 43% | 31 | 76.02 | 1012.3 | ||||||
| 29 | 19:52 | S 13 | 16.09 | Fair | CLR | 32.2 | 16.7 | 39% | 32 | 76 | 1012.0 | ||||||
| 29 | 18:52 | S 26 | 16.09 | Fair | CLR | 35 | 16.7 | 37.2 | 33.9 | 34% | 35 | 76.02 | 1012.1 | ||||
| 29 | 17:52 | S 24 | 16.09 | Fair | CLR | 36.7 | 16.1 | 29% | 37 | 76.02 | 1012.1 | ||||||
| 29 | 16:52 | S 26 | 16.09 | Fair | CLR | 37.2 | 15.6 | 28% | 37 | 76.02 | 1012.3 | ||||||
| 29 | 15:52 | S 22 | 16.09 | Fair | CLR | 36.1 | 16.7 | 32% | 37 | 76.07 | 1013.0 | ||||||
| 29 | 14:52 | S 26 | 16.09 | Fair | CLR | 36.7 | 16.7 | 31% | 37 | 76.15 | 1013.8 | ||||||
| 29 | 13:52 | S 26 | 16.09 | Fair | CLR | 35.6 | 16.7 | 32% | 36 | 76.2 | 1014.4 | ||||||
| 29 | 12:52 | S 19 G 39 | 16.09 | Fair | CLR | 33.9 | 17.2 | 34.4 | 20.6 | 37% | 35 | 76.28 | 1015.6 | ||||
| 29 | 10:52 | S 26 | 16.09 | Fair | CLR | 30.6 | 17.2 | 45% | 31 | 76.38 | 1017.0 | ||||||
| 29 | 09:52 | S 28 G 41 | 16.09 | Fair | CLR | 28.3 | 16.7 | 49% | 29 | 76.4 | 1017.3 | ||||||
| 29 | 08:52 | S 22 | 16.09 | Fair | CLR | 26.7 | 16.1 | 52% | 27 | 76.4 | 1017.3 | ||||||
| 29 | 07:52 | S 13 | 16.09 | Fair | CLR | 22.8 | 15.6 | 64% | 76.38 | 1017.1 | |||||||
| 29 | 06:52 | S 11 | 16.09 | Fair | CLR | 20.6 | 15 | 23.9 | 19.4 | 70% | 76.38 | 1017.1 | |||||
| 29 | 05:52 | S 9 | 16.09 | Fair | CLR | 19.4 | 14.4 | 73% | 76.35 | 1016.8 | |||||||
| 29 | 04:52 | SE 13 | 16.09 | Fair | CLR | 20 | 13.9 | 68% | 76.35 | 1016.6 | |||||||
| 29 | 03:52 | SE 11 | 16.09 | Fair | CLR | 21.1 | 13.9 | 64% | 76.35 | 1016.5 | |||||||
| 29 | 02:52 | SE 13 | 16.09 | Fair | CLR | 21.7 | 13.3 | 59% | 76.35 | 1016.6 | |||||||
| 29 | 01:52 | SE 11 | 16.09 | Fair | CLR | 22.8 | 12.8 | 53% | 76.35 | 1016.8 | |||||||
| 29 | 00:52 | SE 13 | 16.09 | Fair | CLR | 23.9 | 12.8 | 32.8 | 23.3 | 50% | 25 | 76.38 | 1016.9 | ||||
| 28 | 23:52 | SE 11 | 16.09 | Fair | CLR | 23.9 | 13.9 | 54% | 25 | 76.38 | 1017.1 | ||||||
| 28 | 22:52 | E 11 | 16.09 | Fair | CLR | 25 | 14.4 | 52% | 26 | 76.38 | 1017.0 | ||||||
| 28 | 21:52 | E 11 | 16.09 | Fair | CLR | 26.1 | 14.4 | 49% | 27 | 76.35 | 1016.8 | ||||||
| 28 | 20:52 | E 11 | 16.09 | Fair | CLR | 27.8 | 13.3 | 41% | 28 | 76.3 | 1016.2 | ||||||
| 28 | 19:52 | SE 9 | 16.09 | Fair | CLR | 29.4 | 13.3 | 37% | 29 | 76.3 | 1016.1 | ||||||
| 28 | 18:52 | SE 9 | 16.09 | Fair | CLR | 32.8 | 11.7 | 34.4 | 30.6 | 27% | 31 | 76.3 | 1016.1 | ||||
| 28 | 17:52 | Vrbl 11 | 16.09 | Fair | CLR | 33.3 | 11.7 | 27% | 32 | 76.33 | 1016.4 | ||||||
| 28 | 16:52 | Calm | 16.09 | Fair | CLR | 33.9 | 12.2 | 27% | 33 | 76.35 | 1016.7 | ||||||
| 28 | 15:52 | Vrbl 9 | 16.09 | Fair | CLR | 33.9 | 12.2 | 27% | 33 | 76.4 | 1017.4 | ||||||
| 28 | 14:52 | Vrbl 6 | 16.09 | Fair | CLR | 32.2 | 13.9 | 33% | 31 | 76.45 | 1018.2 | ||||||
| 28 | 13:52 | NE 9 | 16.09 | Fair | CLR | 31.1 | 14.4 | 36% | 31 | 76.53 | 1019.0 | ||||||
| 28 | 12:52 | Vrbl 11 | 16.09 | Fair | CLR | 30.6 | 14.4 | 30.6 | 18.3 | 37% | 30 | 76.56 | 1019.5 | ||||
| 28 | 11:52 | Calm | 16.09 | Fair | CLR | 28.9 | 15.6 | 44% | 29 | 76.61 | 1020.2 | ||||||
| 28 | 10:52 | E 9 | 16.09 | Fair | CLR | 27.2 | 16.1 | 51% | 28 | 76.63 | 1020.4 | ||||||
| 28 | 09:52 | E 17 | 16.09 | Fair | CLR | 25 | 16.7 | 60% | 26 | 76.61 | 1020.2 | ||||||
| Date | Time (cdt) | Wind (kph) | Vis. (km) | Weather | Sky Cond. | Air | Dwpt | Max. | Min. | Relative Humidity | Wind Chill (°C) | Heat Index (°C) | altimeter (cm) | sea level (mb) | 1 hr | 3 hr | 6 hr |
| 6 hour | |||||||||||||||||
| Temperature (ºC) | Pressure | Precipitation (cm) | |||||||||||||||